createdAt,value
2023-03-13T00:02:21.202Z,11.27
2023-03-13T00:04:53.683Z,12.25
2023-03-13T00:07:26.079Z,16.60
2023-03-13T00:09:58.341Z,15.85
2023-03-13T00:12:30.798Z,12.02
2023-03-13T00:15:03.224Z,13.73
2023-03-13T00:17:36.193Z,20.67
2023-03-13T00:20:10.185Z,9.50
2023-03-13T00:22:42.598Z,15.23
2023-03-13T00:25:15.006Z,13.52
2023-03-13T00:27:47.346Z,9.95
2023-03-13T00:30:19.616Z,18.10
2023-03-13T00:32:52.673Z,15.75
2023-03-13T00:35:25.073Z,21.60
2023-03-13T00:37:57.385Z,10.40
2023-03-13T00:40:29.969Z,12.88
2023-03-13T00:43:02.293Z,8.60
2023-03-13T00:45:34.511Z,10.85
2023-03-13T00:48:07.438Z,14.38
2023-03-13T00:50:39.846Z,9.20
2023-03-13T00:53:12.151Z,7.10
2023-03-13T00:55:56.124Z,5.30
2023-03-13T00:58:30.264Z,12.40
2023-03-13T01:01:11.034Z,11.02
2023-03-13T01:03:47.247Z,9.15
2023-03-13T01:06:21.496Z,8.90
2023-03-13T01:08:54.536Z,9.88
2023-03-13T01:11:28.644Z,11.10
2023-03-13T01:14:02.440Z,9.88
2023-03-13T01:16:36.422Z,9.77
2023-03-13T01:19:13.284Z,13.20
2023-03-13T01:21:46.428Z,8.40
2023-03-13T01:24:19.578Z,9.60
2023-03-13T01:26:51.902Z,13.50
2023-03-13T01:29:24.187Z,11.02
2023-03-13T01:31:56.429Z,7.72
2023-03-13T01:34:31.213Z,9.40
2023-03-13T01:37:03.553Z,11.60
2023-03-13T01:39:35.850Z,6.28
2023-03-13T01:42:08.323Z,15.25
2023-03-13T01:44:50.693Z,9.40
2023-03-13T01:47:24.094Z,6.97
2023-03-13T01:53:00.852Z,6.63
2023-03-13T01:55:35.912Z,8.07
2023-03-13T01:58:08.527Z,15.82
2023-03-13T02:00:43.532Z,7.60
2023-03-13T02:03:19.593Z,10.82
2023-03-13T02:05:52.039Z,14.68
2023-03-13T02:08:31.573Z,10.35
2023-03-13T02:11:10.183Z,17.92
2023-03-13T02:13:43.317Z,8.80
2023-03-13T02:16:16.520Z,12.50
2023-03-13T02:18:53.091Z,10.93
2023-03-13T02:21:38.958Z,8.48
2023-03-13T02:24:23.138Z,8.52
2023-03-13T02:26:56.412Z,10.45
2023-03-13T02:29:29.358Z,8.60
2023-03-13T02:32:01.839Z,10.02
2023-03-13T02:34:37.833Z,12.27
2023-03-13T02:37:12.328Z,15.38
2023-03-13T02:39:47.864Z,12.90
2023-03-13T02:42:22.903Z,10.60
2023-03-13T02:44:55.516Z,8.38
2023-03-13T02:47:27.822Z,10.05
2023-03-13T02:50:01.294Z,6.60
2023-03-13T02:52:38.462Z,13.93
2023-03-13T02:55:17.360Z,5.88
2023-03-13T02:57:51.015Z,5.50
2023-03-13T03:00:26.068Z,17.35
2023-03-13T03:02:58.562Z,15.88
2023-03-13T03:05:30.861Z,15.43
2023-03-13T03:08:03.941Z,10.75
2023-03-13T03:10:37.191Z,9.65
2023-03-13T03:13:10.874Z,8.80
2023-03-13T03:15:43.192Z,10.15
2023-03-13T03:18:15.504Z,13.13
2023-03-13T03:20:47.847Z,9.07
2023-03-13T03:23:20.113Z,16.17
2023-03-13T03:25:52.437Z,13.35
2023-03-13T03:28:25.346Z,15.98
2023-03-13T03:30:57.647Z,10.27
2023-03-13T03:33:29.922Z,8.00
2023-03-13T03:36:04.857Z,11.52
2023-03-13T03:38:39.020Z,10.73
2023-03-13T03:41:13.697Z,13.52
2023-03-13T03:43:47.051Z,14.68
2023-03-13T03:46:21.729Z,15.05
2023-03-13T03:48:54.321Z,8.02
2023-03-13T03:51:27.295Z,13.52
2023-03-13T03:53:59.675Z,7.15
2023-03-13T03:56:34.569Z,10.23
2023-03-13T03:59:07.748Z,8.77
2023-03-13T04:02:02.026Z,10.65
2023-03-13T04:04:35.723Z,11.10
2023-03-13T04:07:37.071Z,17.40
2023-03-13T04:10:10.795Z,12.68
2023-03-13T04:12:48.516Z,10.75
2023-03-13T04:15:21.790Z,16.58
2023-03-13T04:17:54.403Z,17.58
2023-03-13T04:20:28.438Z,16.05
2023-03-13T04:23:00.797Z,9.70
2023-03-13T04:25:33.041Z,12.90
2023-03-13T04:28:06.708Z,11.20
2023-03-13T04:30:45.669Z,11.57
2023-03-13T04:33:38.247Z,9.38
2023-03-13T04:36:33.494Z,13.73
2023-03-13T04:39:28.593Z,14.55
2023-03-13T04:42:16.280Z,14.02
2023-03-13T04:45:07.591Z,10.15
2023-03-13T04:47:49.821Z,14.77
2023-03-13T04:50:34.335Z,12.18
2023-03-13T04:53:38.893Z,12.40
2023-03-13T04:56:43.539Z,8.55
2023-03-13T04:59:25.437Z,11.77
2023-03-13T05:02:33.418Z,17.08
2023-03-13T05:05:33.657Z,14.85
2023-03-13T05:08:23.588Z,5.55
2023-03-13T05:11:05.808Z,18.70
2023-03-13T05:14:01.416Z,8.15
2023-03-13T05:16:59.728Z,18.30
2023-03-13T05:19:50.685Z,9.85
2023-03-13T05:22:41.300Z,13.85
2023-03-13T05:25:20.502Z,6.82
2023-03-13T05:27:52.864Z,10.98
2023-03-13T05:30:43.948Z,22.67
2023-03-13T05:33:32.055Z,19.75
2023-03-13T05:36:30.305Z,25.13
2023-03-13T05:39:22.200Z,24.60
2023-03-13T05:42:03.972Z,56.88
2023-03-13T05:44:53.848Z,95.90
2023-03-13T05:47:39.041Z,75.25
2023-03-13T05:50:22.231Z,71.38
2023-03-13T05:53:05.136Z,39.53
2023-03-13T05:56:01.474Z,39.50
2023-03-13T05:58:46.015Z,24.30
2023-03-13T06:01:53.766Z,20.30
2023-03-13T06:04:34.859Z,13.85
2023-03-13T06:07:07.455Z,28.02
2023-03-13T06:09:40.324Z,7.70
2023-03-13T06:12:14.592Z,6.57
2023-03-13T06:14:46.856Z,6.07
2023-03-13T06:17:29.003Z,8.30
2023-03-13T06:20:01.572Z,4.32
2023-03-13T06:22:34.036Z,3.65
2023-03-13T06:25:07.325Z,5.43
2023-03-13T06:27:41.673Z,11.60
2023-03-13T06:30:14.219Z,12.10
2023-03-13T06:32:46.722Z,4.53
2023-03-13T06:35:19.138Z,5.85
2023-03-13T06:37:51.504Z,6.75
2023-03-13T06:40:23.753Z,18.73
2023-03-13T06:42:56.710Z,10.05
2023-03-13T06:45:29.030Z,8.25
2023-03-13T06:48:01.324Z,4.65
2023-03-13T06:50:37.406Z,11.57
2023-03-13T06:53:15.344Z,5.75
2023-03-13T06:55:48.634Z,5.10
2023-03-13T06:58:31.972Z,4.13
2023-03-13T07:01:06.558Z,5.85
2023-03-13T07:03:40.715Z,7.05
2023-03-13T07:06:13.077Z,5.15
2023-03-13T07:08:45.435Z,3.80
2023-03-13T07:11:18.253Z,8.40
2023-03-13T07:14:00.541Z,8.35
2023-03-13T07:16:42.731Z,5.63
2023-03-13T07:19:15.466Z,5.32
2023-03-13T07:21:48.971Z,7.85
2023-03-13T07:24:21.457Z,6.35
2023-03-13T07:27:04.891Z,3.30
2023-03-13T07:29:40.159Z,6.50
2023-03-13T07:32:12.422Z,5.32
2023-03-13T07:34:44.768Z,7.13
2023-03-13T07:37:17.402Z,4.28
2023-03-13T07:39:49.688Z,5.13
2023-03-13T07:42:22.005Z,6.28
2023-03-13T07:44:54.937Z,3.72
2023-03-13T07:47:27.261Z,6.75
2023-03-13T07:49:59.533Z,6.90
2023-03-13T07:52:31.973Z,5.35
2023-03-13T07:55:05.452Z,7.15
2023-03-13T07:57:37.751Z,6.53
2023-03-13T08:00:17.910Z,8.40
2023-03-13T08:02:50.164Z,4.72
2023-03-13T08:05:22.440Z,5.82
2023-03-13T08:07:54.779Z,5.10
2023-03-13T08:10:27.236Z,6.05
2023-03-13T08:12:59.622Z,7.03
2023-03-13T08:15:32.580Z,6.60
2023-03-13T08:18:04.998Z,7.03
2023-03-13T08:20:37.443Z,5.43
2023-03-13T08:23:09.765Z,7.18
2023-03-13T08:25:42.130Z,12.65
2023-03-13T08:28:14.540Z,7.18
2023-03-13T08:30:47.679Z,8.27
2023-03-13T08:33:20.006Z,6.22
2023-03-13T08:35:52.341Z,7.82
2023-03-13T08:38:24.647Z,7.78
2023-03-13T08:40:57.403Z,8.32
2023-03-13T08:43:29.701Z,8.15
2023-03-13T08:46:02.700Z,8.50
2023-03-13T08:48:35.239Z,8.25
2023-03-13T08:51:09.178Z,9.00
2023-03-13T08:53:43.934Z,8.00
2023-03-13T08:56:18.668Z,11.73
2023-03-13T08:58:52.225Z,5.88
2023-03-13T09:01:26.723Z,7.25
2023-03-13T09:04:03.242Z,9.15
2023-03-13T09:06:37.972Z,12.05
2023-03-13T09:09:10.908Z,8.38
2023-03-13T09:11:43.239Z,7.57
2023-03-13T09:14:15.679Z,8.35
2023-03-13T09:16:49.134Z,6.07
2023-03-13T09:19:21.511Z,8.95
2023-03-13T09:21:53.811Z,7.28
2023-03-13T09:24:26.225Z,7.68
2023-03-13T09:27:01.356Z,5.63
2023-03-13T09:29:37.416Z,5.55
2023-03-13T09:32:10.806Z,6.32
2023-03-13T09:34:43.105Z,9.43
2023-03-13T09:37:15.403Z,9.60
2023-03-13T09:39:48.385Z,5.35
2023-03-13T09:42:24.136Z,7.53
2023-03-13T09:45:03.416Z,6.85
2023-03-13T09:47:42.338Z,6.53
2023-03-13T09:50:18.577Z,7.68
2023-03-13T09:52:55.634Z,9.07
2023-03-13T09:55:32.695Z,7.00
2023-03-13T09:58:13.068Z,8.02
2023-03-13T10:00:51.067Z,9.95
2023-03-13T10:03:29.119Z,7.97
2023-03-13T10:06:05.632Z,5.85
2023-03-13T10:08:37.973Z,7.00
2023-03-13T10:11:16.902Z,6.68
2023-03-13T10:13:55.377Z,9.02
2023-03-13T10:16:34.629Z,9.10
2023-03-13T10:19:14.606Z,6.72
2023-03-13T10:21:51.237Z,8.40
2023-03-13T10:24:32.051Z,9.40
2023-03-13T10:27:04.359Z,6.40
2023-03-13T10:29:38.040Z,6.03
2023-03-13T10:32:13.521Z,7.00
2023-03-13T10:34:52.006Z,4.90
2023-03-13T10:37:26.755Z,7.18
2023-03-13T10:40:12.869Z,8.23
2023-03-13T10:42:45.792Z,6.13
2023-03-13T10:45:23.924Z,6.10
2023-03-13T10:48:01.046Z,8.75
2023-03-13T10:50:35.069Z,5.30
2023-03-13T10:53:31.502Z,5.00
2023-03-13T10:56:11.365Z,7.53
2023-03-13T10:58:46.089Z,4.57
2023-03-13T11:01:22.103Z,7.15
2023-03-13T11:03:56.385Z,9.20
2023-03-13T11:06:31.273Z,7.57
2023-03-13T11:09:11.677Z,8.07
2023-03-13T11:11:46.679Z,7.82
2023-03-13T11:14:21.021Z,6.97
2023-03-13T11:16:55.365Z,9.95
2023-03-13T11:19:42.994Z,7.97
2023-03-13T11:22:38.306Z,14.25
2023-03-13T11:25:20.601Z,8.52
2023-03-13T11:28:08.095Z,10.65
2023-03-13T11:30:54.299Z,7.55
2023-03-13T11:33:38.809Z,7.40
2023-03-13T11:36:19.216Z,8.55
2023-03-13T11:38:55.266Z,5.88
2023-03-13T11:41:42.027Z,6.85
2023-03-13T11:44:23.496Z,9.20
2023-03-13T11:47:12.627Z,9.93
2023-03-13T11:50:08.343Z,9.15
2023-03-13T11:52:58.135Z,9.80
2023-03-13T11:55:49.261Z,14.55
2023-03-13T11:58:41.511Z,11.63
2023-03-13T12:01:16.999Z,8.95
2023-03-13T12:03:57.619Z,9.38
2023-03-13T12:06:32.786Z,9.20
2023-03-13T12:09:12.164Z,10.07
2023-03-13T12:11:52.503Z,10.65
2023-03-13T12:14:30.129Z,13.55
2023-03-13T12:17:05.863Z,16.45
2023-03-13T12:19:45.377Z,9.20
2023-03-13T12:22:22.966Z,11.55
2023-03-13T12:24:59.878Z,8.63
2023-03-13T12:27:40.496Z,11.77
2023-03-13T12:30:22.234Z,10.35
2023-03-13T12:33:01.826Z,15.30
2023-03-13T12:38:17.059Z,17.98
2023-03-13T12:40:56.975Z,10.88
2023-03-13T12:43:32.582Z,10.00
2023-03-13T12:46:21.564Z,10.57
2023-03-13T12:49:13.877Z,9.95
2023-03-13T12:52:04.352Z,12.88
2023-03-13T12:54:48.888Z,12.68
2023-03-13T12:58:00.245Z,12.27
2023-03-13T13:00:36.237Z,12.05
2023-03-13T13:03:20.069Z,13.13
2023-03-13T13:06:05.594Z,14.18
2023-03-13T13:08:40.989Z,11.45
2023-03-13T13:11:55.017Z,13.07
2023-03-13T13:15:03.564Z,12.20
2023-03-13T13:18:03.519Z,12.30
2023-03-13T13:20:44.785Z,12.10
2023-03-13T13:23:33.443Z,14.65
2023-03-13T13:26:45.467Z,14.75
2023-03-13T13:29:57.225Z,13.48
2023-03-13T13:32:44.012Z,11.73
2023-03-13T13:35:31.234Z,10.27
2023-03-13T13:38:39.452Z,11.10
2023-03-13T13:41:37.476Z,11.27
2023-03-13T13:44:29.555Z,9.98
2023-03-13T13:47:02.799Z,10.23
2023-03-13T13:49:50.893Z,12.30
2023-03-13T13:52:36.437Z,12.95
2023-03-13T13:55:32.848Z,10.38
2023-03-13T13:58:11.398Z,16.10
2023-03-13T14:00:47.826Z,11.50
2023-03-13T14:03:23.136Z,10.77
2023-03-13T14:06:00.116Z,11.30
2023-03-13T14:08:38.532Z,12.45
2023-03-13T14:11:24.450Z,17.08
2023-03-13T14:14:09.030Z,12.55
2023-03-13T14:16:45.604Z,11.80
2023-03-13T14:19:26.806Z,13.43
2023-03-13T14:22:01.346Z,19.58
2023-03-13T14:24:34.907Z,15.05
2023-03-13T14:27:15.121Z,17.15
2023-03-13T14:30:00.220Z,15.35
2023-03-13T14:32:33.380Z,14.73
2023-03-13T14:35:07.244Z,13.32
2023-03-13T14:37:42.804Z,11.65
2023-03-13T14:40:24.817Z,15.18
2023-03-13T14:42:59.028Z,13.15
2023-03-13T14:45:33.108Z,19.30
2023-03-13T14:48:16.994Z,14.20
2023-03-13T14:50:59.670Z,19.55
2023-03-13T14:53:52.621Z,12.63
2023-03-13T14:56:34.757Z,25.17
2023-03-13T14:59:16.803Z,20.83
2023-03-13T15:01:58.752Z,14.30
2023-03-13T15:04:51.613Z,11.18
2023-03-13T15:07:26.057Z,18.75
2023-03-13T15:10:00.143Z,16.00
2023-03-13T15:12:43.670Z,18.05
2023-03-13T15:15:16.259Z,17.05
2023-03-13T15:17:48.975Z,16.40
2023-03-13T15:20:22.338Z,13.32
2023-03-13T15:22:54.609Z,12.38
2023-03-13T15:25:26.877Z,13.73
2023-03-13T15:27:59.862Z,14.05
2023-03-13T15:30:32.349Z,12.38
2023-03-13T15:33:04.759Z,15.50
2023-03-13T15:35:37.102Z,14.38
2023-03-13T15:38:13.872Z,14.10
2023-03-13T15:40:46.514Z,15.63
2023-03-13T15:43:21.081Z,14.82
2023-03-13T15:45:53.607Z,12.45
2023-03-13T15:48:27.582Z,13.68
2023-03-13T15:51:03.309Z,13.02
2023-03-13T15:53:36.163Z,11.75
2023-03-13T15:56:15.039Z,14.00
2023-03-13T15:58:48.581Z,14.43
2023-03-13T16:01:22.361Z,16.95
2023-03-13T16:03:55.877Z,14.63
2023-03-13T16:06:30.587Z,11.35
2023-03-13T16:09:05.902Z,14.30
2023-03-13T16:11:38.259Z,38.83
2023-03-13T16:14:11.318Z,15.63
2023-03-13T16:16:43.675Z,17.88
2023-03-13T16:19:16.190Z,17.00
2023-03-13T16:21:49.052Z,15.32
2023-03-13T16:24:21.480Z,15.60
2023-03-13T16:26:53.861Z,31.00
2023-03-13T16:29:26.966Z,34.17
2023-03-13T16:31:59.254Z,14.68
2023-03-13T16:34:31.572Z,17.88
2023-03-13T16:37:11.231Z,15.35
2023-03-13T16:39:44.462Z,29.55
2023-03-13T16:42:16.775Z,17.90
2023-03-13T16:44:49.819Z,18.23
2023-03-13T16:47:27.212Z,13.13
2023-03-13T16:49:59.528Z,14.27
2023-03-13T16:52:31.849Z,9.77
2023-03-13T16:55:04.853Z,16.63
2023-03-13T16:57:37.242Z,16.58
2023-03-13T17:00:15.341Z,15.73
2023-03-13T17:02:47.855Z,10.80
2023-03-13T17:05:20.518Z,10.27
2023-03-13T17:07:53.563Z,8.98
2023-03-13T17:10:28.100Z,9.05
2023-03-13T17:13:01.001Z,6.90
2023-03-13T17:15:34.066Z,7.10
2023-03-13T17:18:06.553Z,4.85
2023-03-13T17:20:39.006Z,5.53
2023-03-13T17:23:11.307Z,11.43
2023-03-13T17:25:46.755Z,34.33
2023-03-13T17:28:19.084Z,21.70
2023-03-13T17:30:52.083Z,7.20
2023-03-13T17:33:24.390Z,11.77
2023-03-13T17:35:57.046Z,19.23
2023-03-13T17:38:29.505Z,42.33
2023-03-13T17:41:01.944Z,47.63
2023-03-13T17:43:34.877Z,36.58
2023-03-13T17:46:17.190Z,36.60
2023-03-13T17:48:51.898Z,36.95
2023-03-13T17:51:26.572Z,69.30
2023-03-13T17:53:59.179Z,49.80
2023-03-13T17:56:35.646Z,49.63
2023-03-13T17:59:13.031Z,48.35
2023-03-13T18:01:46.160Z,47.45
2023-03-13T18:04:18.519Z,64.82
2023-03-13T18:06:50.913Z,76.13
2023-03-13T18:09:23.222Z,59.65
2023-03-13T18:11:55.903Z,50.13
2023-03-13T18:14:28.331Z,47.25
2023-03-13T18:17:01.650Z,48.47
2023-03-13T18:19:34.023Z,48.85
2023-03-13T18:22:06.731Z,38.67
2023-03-13T18:24:39.207Z,35.38
2023-03-13T18:27:13.514Z,59.25
2023-03-13T18:29:48.277Z,112.70
2023-03-13T18:32:21.347Z,88.47
2023-03-13T18:34:53.766Z,89.15
2023-03-13T18:37:27.985Z,81.72
2023-03-13T18:40:01.609Z,53.55
2023-03-13T18:42:33.991Z,55.15
2023-03-13T18:45:07.789Z,82.13
2023-03-13T18:47:40.742Z,78.53
2023-03-13T18:50:24.319Z,76.07
2023-03-13T18:52:59.069Z,74.28
2023-03-13T18:55:31.471Z,60.63
2023-03-13T18:58:03.860Z,67.05
2023-03-13T19:00:36.521Z,42.70
2023-03-13T19:03:09.631Z,39.78
2023-03-13T19:05:42.135Z,50.20
2023-03-13T19:08:14.481Z,42.88
2023-03-13T19:10:47.037Z,46.17
2023-03-13T19:13:19.434Z,45.70
2023-03-13T19:15:51.779Z,43.90
2023-03-13T19:18:24.752Z,42.63
2023-03-13T19:20:57.964Z,72.28
2023-03-13T19:23:30.224Z,75.75
2023-03-13T19:26:02.674Z,59.97
2023-03-13T19:28:34.994Z,73.45
2023-03-13T19:31:07.380Z,49.75
2023-03-13T19:33:40.622Z,52.22
2023-03-13T19:36:13.959Z,54.65
2023-03-13T19:38:46.222Z,47.58
2023-03-13T19:41:18.585Z,52.53
2023-03-13T19:43:50.964Z,62.70
2023-03-13T19:46:25.316Z,48.42
2023-03-13T19:49:00.135Z,66.55
2023-03-13T19:51:32.662Z,52.55
2023-03-13T19:54:05.182Z,48.92
2023-03-13T19:56:38.967Z,50.63
2023-03-13T19:59:15.092Z,44.25
2023-03-13T20:01:47.785Z,50.20
2023-03-13T20:04:20.975Z,37.75
2023-03-13T20:06:53.352Z,36.53
2023-03-13T20:09:25.766Z,48.38
2023-03-13T20:11:58.157Z,61.80
2023-03-13T20:14:30.405Z,52.00
2023-03-13T20:17:03.057Z,80.18
2023-03-13T20:19:35.994Z,70.88
2023-03-13T20:22:09.045Z,76.82
2023-03-13T20:24:56.964Z,60.00
2023-03-13T20:27:29.221Z,55.25
2023-03-13T20:30:02.301Z,68.32
2023-03-13T20:32:34.792Z,48.13
2023-03-13T20:35:12.215Z,52.70
2023-03-13T20:37:44.593Z,81.32
2023-03-13T20:40:17.052Z,70.70
2023-03-13T20:42:49.450Z,76.53
2023-03-13T20:45:21.715Z,94.63
2023-03-13T20:47:54.439Z,132.60
2023-03-13T20:50:27.607Z,143.00
2023-03-13T20:52:59.916Z,78.75
2023-03-13T20:55:32.451Z,55.42
2023-03-13T20:58:04.864Z,70.93
2023-03-13T21:00:37.148Z,99.55
2023-03-13T21:03:09.784Z,65.57
2023-03-13T21:05:43.384Z,66.13
2023-03-13T21:08:15.654Z,78.22
2023-03-13T21:10:48.050Z,72.22
2023-03-13T21:13:20.454Z,93.82
2023-03-13T21:15:59.800Z,91.38
2023-03-13T21:18:32.185Z,117.88
2023-03-13T21:21:06.965Z,130.65
2023-03-13T21:23:39.364Z,104.72
2023-03-13T21:26:12.839Z,89.32
2023-03-13T21:28:45.144Z,73.13
2023-03-13T21:31:19.006Z,70.47
2023-03-13T21:33:51.424Z,85.65
2023-03-13T21:36:24.535Z,90.53
2023-03-13T21:38:57.060Z,103.40
2023-03-13T21:41:29.432Z,100.82
2023-03-13T21:44:02.354Z,125.20
2023-03-13T21:46:34.778Z,116.22
2023-03-13T21:49:07.079Z,93.28
2023-03-13T21:51:40.140Z,81.15
2023-03-13T21:54:12.393Z,89.22
2023-03-13T21:56:44.672Z,111.15
2023-03-13T21:59:17.349Z,97.38
2023-03-13T22:01:49.704Z,89.03
2023-03-13T22:04:22.076Z,86.78
2023-03-13T22:06:55.302Z,112.00
2023-03-13T22:09:27.728Z,81.93
2023-03-13T22:12:00.190Z,61.58
2023-03-13T22:14:32.846Z,68.88
2023-03-13T22:17:05.235Z,65.05
2023-03-13T22:19:37.650Z,67.45
2023-03-13T22:22:10.665Z,75.95
2023-03-13T22:24:43.213Z,83.85
2023-03-13T22:27:16.879Z,71.63
2023-03-13T22:29:49.169Z,74.90
2023-03-13T22:32:21.435Z,83.53
2023-03-13T22:34:53.812Z,66.20
2023-03-13T22:37:26.950Z,66.38
2023-03-13T22:39:59.280Z,63.10
2023-03-13T22:42:31.538Z,66.05
2023-03-13T22:45:04.617Z,74.22
2023-03-13T22:47:37.103Z,63.95
2023-03-13T22:50:11.242Z,64.03
2023-03-13T22:52:44.178Z,75.30
2023-03-13T22:55:16.652Z,77.38
2023-03-13T22:57:49.072Z,69.63
2023-03-13T23:00:21.569Z,85.72
2023-03-13T23:02:54.385Z,64.15
2023-03-13T23:05:26.670Z,68.78
2023-03-13T23:07:59.768Z,77.47
2023-03-13T23:10:32.216Z,71.53
2023-03-13T23:13:04.787Z,49.45
2023-03-13T23:15:54.777Z,62.47
2023-03-13T23:18:27.949Z,75.82
2023-03-13T23:21:04.854Z,72.32
2023-03-13T23:23:38.072Z,86.45
2023-03-13T23:26:12.379Z,58.15
2023-03-13T23:28:44.722Z,66.32
2023-03-13T23:31:18.987Z,68.57
2023-03-13T23:33:51.286Z,61.47
2023-03-13T23:36:23.560Z,52.55
2023-03-13T23:38:57.604Z,54.30
2023-03-13T23:41:30.113Z,58.85
2023-03-13T23:44:02.404Z,52.67
2023-03-13T23:46:35.473Z,62.83
2023-03-13T23:49:07.796Z,56.40
2023-03-13T23:51:40.068Z,74.70
2023-03-13T23:54:13.044Z,47.80
2023-03-13T23:56:45.314Z,58.53
2023-03-13T23:59:17.981Z,59.47
